sensor_id;sensor_type;location;lat;lon;timestamp;P1;durP1;ratioP1;P2;durP2;ratioP2
35699;SDS011;21818;51.078;12.108;2023-07-24T00:00:23;3.55;;;2.00;;
35699;SDS011;21818;51.078;12.108;2023-07-24T00:02:48;3.30;;;2.55;;
35699;SDS011;21818;51.078;12.108;2023-07-24T00:05:14;3.80;;;2.42;;
35699;SDS011;21818;51.078;12.108;2023-07-24T00:07:40;10.82;;;2.58;;
35699;SDS011;21818;51.078;12.108;2023-07-24T00:10:05;4.05;;;2.08;;
35699;SDS011;21818;51.078;12.108;2023-07-24T00:12:31;4.50;;;2.03;;
35699;SDS011;21818;51.078;12.108;2023-07-24T00:14:57;2.92;;;1.92;;
35699;SDS011;21818;51.078;12.108;2023-07-24T00:17:23;4.25;;;2.10;;
35699;SDS011;21818;51.078;12.108;2023-07-24T00:19:49;2.60;;;1.90;;
35699;SDS011;21818;51.078;12.108;2023-07-24T00:22:14;3.22;;;2.10;;
35699;SDS011;21818;51.078;12.108;2023-07-24T00:24:40;2.55;;;1.73;;
35699;SDS011;21818;51.078;12.108;2023-07-24T00:27:06;4.53;;;2.65;;
35699;SDS011;21818;51.078;12.108;2023-07-24T00:29:31;3.33;;;2.00;;
35699;SDS011;21818;51.078;12.108;2023-07-24T00:31:57;3.45;;;2.15;;
35699;SDS011;21818;51.078;12.108;2023-07-24T00:34:22;3.92;;;2.40;;
35699;SDS011;21818;51.078;12.108;2023-07-24T00:36:48;4.88;;;2.42;;
35699;SDS011;21818;51.078;12.108;2023-07-24T00:39:14;4.13;;;2.30;;
35699;SDS011;21818;51.078;12.108;2023-07-24T00:41:40;6.82;;;2.60;;
35699;SDS011;21818;51.078;12.108;2023-07-24T00:44:06;3.08;;;2.25;;
35699;SDS011;21818;51.078;12.108;2023-07-24T00:46:32;3.80;;;2.53;;
35699;SDS011;21818;51.078;12.108;2023-07-24T00:48:58;3.70;;;2.40;;
35699;SDS011;21818;51.078;12.108;2023-07-24T00:51:25;3.90;;;2.35;;
35699;SDS011;21818;51.078;12.108;2023-07-24T00:53:54;6.25;;;2.50;;
35699;SDS011;21818;51.078;12.108;2023-07-24T00:56:30;6.38;;;1.98;;
35699;SDS011;21818;51.078;12.108;2023-07-24T00:58:56;3.92;;;1.90;;
35699;SDS011;21818;51.078;12.108;2023-07-24T01:01:22;4.65;;;2.33;;
35699;SDS011;21818;51.078;12.108;2023-07-24T01:03:49;3.42;;;2.28;;
35699;SDS011;21818;51.078;12.108;2023-07-24T01:06:15;6.22;;;2.45;;
35699;SDS011;21818;51.078;12.108;2023-07-24T01:08:41;8.55;;;2.85;;
35699;SDS011;21818;51.078;12.108;2023-07-24T01:11:12;7.65;;;2.60;;
35699;SDS011;21818;51.078;12.108;2023-07-24T01:13:44;3.58;;;2.60;;
35699;SDS011;21818;51.078;12.108;2023-07-24T01:16:19;3.50;;;2.05;;
35699;SDS011;21818;51.078;12.108;2023-07-24T01:18:48;3.63;;;2.30;;
35699;SDS011;21818;51.078;12.108;2023-07-24T01:21:18;3.95;;;2.20;;
35699;SDS011;21818;51.078;12.108;2023-07-24T01:26:24;3.28;;;2.25;;
35699;SDS011;21818;51.078;12.108;2023-07-24T01:28:50;3.05;;;2.30;;
35699;SDS011;21818;51.078;12.108;2023-07-24T01:31:16;3.55;;;2.40;;
35699;SDS011;21818;51.078;12.108;2023-07-24T01:33:42;4.18;;;2.60;;
35699;SDS011;21818;51.078;12.108;2023-07-24T01:36:09;3.33;;;2.38;;
35699;SDS011;21818;51.078;12.108;2023-07-24T01:38:35;3.55;;;2.42;;
35699;SDS011;21818;51.078;12.108;2023-07-24T01:41:04;4.38;;;2.10;;
35699;SDS011;21818;51.078;12.108;2023-07-24T01:43:30;4.80;;;2.72;;
35699;SDS011;21818;51.078;12.108;2023-07-24T01:45:57;4.07;;;2.38;;
35699;SDS011;21818;51.078;12.108;2023-07-24T01:48:23;4.20;;;2.50;;
35699;SDS011;21818;51.078;12.108;2023-07-24T01:50:49;3.90;;;2.30;;
35699;SDS011;21818;51.078;12.108;2023-07-24T01:53:15;7.72;;;2.63;;
35699;SDS011;21818;51.078;12.108;2023-07-24T01:55:41;4.25;;;2.40;;
35699;SDS011;21818;51.078;12.108;2023-07-24T01:58:06;4.47;;;2.53;;
35699;SDS011;21818;51.078;12.108;2023-07-24T02:00:32;3.20;;;2.10;;
35699;SDS011;21818;51.078;12.108;2023-07-24T02:02:57;3.80;;;2.40;;
35699;SDS011;21818;51.078;12.108;2023-07-24T02:05:23;3.65;;;2.10;;
35699;SDS011;21818;51.078;12.108;2023-07-24T02:07:49;4.38;;;2.05;;
35699;SDS011;21818;51.078;12.108;2023-07-24T02:10:14;3.72;;;2.20;;
35699;SDS011;21818;51.078;12.108;2023-07-24T02:12:40;4.75;;;2.55;;
35699;SDS011;21818;51.078;12.108;2023-07-24T02:15:06;6.57;;;2.50;;
35699;SDS011;21818;51.078;12.108;2023-07-24T02:17:32;2.88;;;2.08;;
35699;SDS011;21818;51.078;12.108;2023-07-24T02:19:57;5.38;;;2.38;;
35699;SDS011;21818;51.078;12.108;2023-07-24T02:22:23;3.58;;;2.20;;
35699;SDS011;21818;51.078;12.108;2023-07-24T02:24:49;4.20;;;2.47;;
35699;SDS011;21818;51.078;12.108;2023-07-24T02:27:25;4.07;;;2.30;;
35699;SDS011;21818;51.078;12.108;2023-07-24T02:29:52;3.58;;;2.22;;
35699;SDS011;21818;51.078;12.108;2023-07-24T02:32:18;2.70;;;1.95;;
35699;SDS011;21818;51.078;12.108;2023-07-24T02:34:46;4.65;;;2.67;;
35699;SDS011;21818;51.078;12.108;2023-07-24T02:37:12;4.55;;;2.45;;
35699;SDS011;21818;51.078;12.108;2023-07-24T02:39:38;3.90;;;2.40;;
35699;SDS011;21818;51.078;12.108;2023-07-24T02:42:03;2.92;;;1.90;;
35699;SDS011;21818;51.078;12.108;2023-07-24T02:44:29;4.20;;;2.60;;
35699;SDS011;21818;51.078;12.108;2023-07-24T02:46:54;3.20;;;2.50;;
35699;SDS011;21818;51.078;12.108;2023-07-24T02:49:20;4.43;;;2.13;;
35699;SDS011;21818;51.078;12.108;2023-07-24T02:51:46;7.10;;;2.65;;
35699;SDS011;21818;51.078;12.108;2023-07-24T02:54:11;7.72;;;2.72;;
35699;SDS011;21818;51.078;12.108;2023-07-24T02:56:37;3.47;;;2.40;;
35699;SDS011;21818;51.078;12.108;2023-07-24T02:59:04;6.40;;;3.10;;
35699;SDS011;21818;51.078;12.108;2023-07-24T03:01:29;3.83;;;2.65;;
35699;SDS011;21818;51.078;12.108;2023-07-24T03:03:55;3.53;;;2.22;;
35699;SDS011;21818;51.078;12.108;2023-07-24T03:06:20;8.07;;;2.75;;
35699;SDS011;21818;51.078;12.108;2023-07-24T03:08:46;3.13;;;2.35;;
35699;SDS011;21818;51.078;12.108;2023-07-24T03:11:11;6.22;;;2.50;;
35699;SDS011;21818;51.078;12.108;2023-07-24T03:13:37;5.38;;;2.55;;
35699;SDS011;21818;51.078;12.108;2023-07-24T03:16:05;5.18;;;2.38;;
35699;SDS011;21818;51.078;12.108;2023-07-24T03:18:31;4.97;;;2.55;;
35699;SDS011;21818;51.078;12.108;2023-07-24T03:20:57;4.13;;;2.50;;
35699;SDS011;21818;51.078;12.108;2023-07-24T03:23:24;3.45;;;2.40;;
35699;SDS011;21818;51.078;12.108;2023-07-24T03:25:49;3.58;;;2.40;;
35699;SDS011;21818;51.078;12.108;2023-07-24T03:28:15;4.22;;;2.35;;
35699;SDS011;21818;51.078;12.108;2023-07-24T03:30:40;5.22;;;2.72;;
35699;SDS011;21818;51.078;12.108;2023-07-24T03:33:06;3.83;;;2.13;;
35699;SDS011;21818;51.078;12.108;2023-07-24T03:35:32;4.30;;;3.03;;
35699;SDS011;21818;51.078;12.108;2023-07-24T03:37:58;4.60;;;2.65;;
35699;SDS011;21818;51.078;12.108;2023-07-24T03:40:23;8.88;;;3.58;;
35699;SDS011;21818;51.078;12.108;2023-07-24T03:42:49;10.00;;;4.00;;
35699;SDS011;21818;51.078;12.108;2023-07-24T03:45:14;7.35;;;3.25;;
35699;SDS011;21818;51.078;12.108;2023-07-24T03:47:40;5.07;;;3.03;;
35699;SDS011;21818;51.078;12.108;2023-07-24T03:50:06;7.47;;;3.25;;
35699;SDS011;21818;51.078;12.108;2023-07-24T03:52:31;3.67;;;2.72;;
35699;SDS011;21818;51.078;12.108;2023-07-24T03:54:57;5.05;;;2.85;;
35699;SDS011;21818;51.078;12.108;2023-07-24T03:57:23;5.55;;;2.78;;
35699;SDS011;21818;51.078;12.108;2023-07-24T03:59:48;6.60;;;2.92;;
35699;SDS011;21818;51.078;12.108;2023-07-24T04:02:14;8.68;;;2.67;;
35699;SDS011;21818;51.078;12.108;2023-07-24T04:04:39;7.63;;;3.15;;
35699;SDS011;21818;51.078;12.108;2023-07-24T04:07:05;7.25;;;3.08;;
35699;SDS011;21818;51.078;12.108;2023-07-24T04:09:30;6.25;;;2.97;;
35699;SDS011;21818;51.078;12.108;2023-07-24T04:11:56;8.63;;;3.40;;
35699;SDS011;21818;51.078;12.108;2023-07-24T04:14:22;6.28;;;2.90;;
35699;SDS011;21818;51.078;12.108;2023-07-24T04:16:47;6.93;;;3.15;;
35699;SDS011;21818;51.078;12.108;2023-07-24T04:19:13;6.68;;;2.22;;
35699;SDS011;21818;51.078;12.108;2023-07-24T04:21:39;6.05;;;2.92;;
35699;SDS011;21818;51.078;12.108;2023-07-24T04:24:04;5.90;;;2.75;;
35699;SDS011;21818;51.078;12.108;2023-07-24T04:26:30;4.57;;;2.67;;
35699;SDS011;21818;51.078;12.108;2023-07-24T04:28:56;5.88;;;2.97;;
35699;SDS011;21818;51.078;12.108;2023-07-24T04:31:21;5.15;;;2.70;;
35699;SDS011;21818;51.078;12.108;2023-07-24T04:33:47;4.95;;;2.75;;
35699;SDS011;21818;51.078;12.108;2023-07-24T04:36:12;4.35;;;2.85;;
35699;SDS011;21818;51.078;12.108;2023-07-24T04:38:38;7.22;;;3.13;;
35699;SDS011;21818;51.078;12.108;2023-07-24T04:41:03;5.20;;;2.47;;
35699;SDS011;21818;51.078;12.108;2023-07-24T04:43:29;4.28;;;2.65;;
35699;SDS011;21818;51.078;12.108;2023-07-24T04:45:55;4.63;;;2.78;;
35699;SDS011;21818;51.078;12.108;2023-07-24T04:48:20;4.78;;;3.00;;
35699;SDS011;21818;51.078;12.108;2023-07-24T04:50:46;4.82;;;3.10;;
35699;SDS011;21818;51.078;12.108;2023-07-24T04:55:42;5.03;;;2.78;;
35699;SDS011;21818;51.078;12.108;2023-07-24T04:58:11;4.97;;;3.17;;
35699;SDS011;21818;51.078;12.108;2023-07-24T05:00:36;7.70;;;3.72;;
35699;SDS011;21818;51.078;12.108;2023-07-24T05:03:02;4.22;;;2.90;;
35699;SDS011;21818;51.078;12.108;2023-07-24T05:05:27;6.93;;;3.03;;
35699;SDS011;21818;51.078;12.108;2023-07-24T05:07:53;5.15;;;2.58;;
35699;SDS011;21818;51.078;12.108;2023-07-24T05:10:19;4.47;;;2.80;;
35699;SDS011;21818;51.078;12.108;2023-07-24T05:12:44;7.70;;;3.33;;
35699;SDS011;21818;51.078;12.108;2023-07-24T05:15:10;5.43;;;2.92;;
35699;SDS011;21818;51.078;12.108;2023-07-24T05:17:35;5.50;;;3.05;;
35699;SDS011;21818;51.078;12.108;2023-07-24T05:20:01;6.15;;;2.83;;
35699;SDS011;21818;51.078;12.108;2023-07-24T05:22:27;4.32;;;3.00;;
35699;SDS011;21818;51.078;12.108;2023-07-24T05:24:52;4.15;;;2.67;;
35699;SDS011;21818;51.078;12.108;2023-07-24T05:27:18;5.28;;;3.17;;
35699;SDS011;21818;51.078;12.108;2023-07-24T05:29:44;4.55;;;2.90;;
35699;SDS011;21818;51.078;12.108;2023-07-24T05:32:09;7.65;;;3.30;;
35699;SDS011;21818;51.078;12.108;2023-07-24T05:34:35;6.60;;;3.47;;
35699;SDS011;21818;51.078;12.108;2023-07-24T05:37:01;8.63;;;3.28;;
35699;SDS011;21818;51.078;12.108;2023-07-24T05:39:26;10.75;;;3.30;;
35699;SDS011;21818;51.078;12.108;2023-07-24T05:41:52;5.80;;;3.25;;
35699;SDS011;21818;51.078;12.108;2023-07-24T05:44:17;5.05;;;3.10;;
35699;SDS011;21818;51.078;12.108;2023-07-24T05:46:43;6.13;;;3.08;;
35699;SDS011;21818;51.078;12.108;2023-07-24T05:49:08;6.18;;;3.33;;
35699;SDS011;21818;51.078;12.108;2023-07-24T05:51:34;8.82;;;3.72;;
35699;SDS011;21818;51.078;12.108;2023-07-24T05:53:59;5.05;;;2.97;;
35699;SDS011;21818;51.078;12.108;2023-07-24T05:56:25;7.57;;;3.97;;
35699;SDS011;21818;51.078;12.108;2023-07-24T05:58:51;6.00;;;3.20;;
35699;SDS011;21818;51.078;12.108;2023-07-24T06:01:16;8.90;;;3.50;;
35699;SDS011;21818;51.078;12.108;2023-07-24T06:03:42;6.60;;;3.45;;
35699;SDS011;21818;51.078;12.108;2023-07-24T06:06:07;5.88;;;3.25;;
35699;SDS011;21818;51.078;12.108;2023-07-24T06:08:33;6.85;;;3.35;;
35699;SDS011;21818;51.078;12.108;2023-07-24T06:10:58;10.05;;;3.97;;
35699;SDS011;21818;51.078;12.108;2023-07-24T06:13:24;7.43;;;3.75;;
35699;SDS011;21818;51.078;12.108;2023-07-24T06:15:50;8.68;;;3.58;;
35699;SDS011;21818;51.078;12.108;2023-07-24T06:18:16;6.57;;;4.00;;
35699;SDS011;21818;51.078;12.108;2023-07-24T06:20:42;8.70;;;4.00;;
35699;SDS011;21818;51.078;12.108;2023-07-24T06:23:08;8.85;;;3.97;;
35699;SDS011;21818;51.078;12.108;2023-07-24T06:25:33;8.07;;;3.70;;
35699;SDS011;21818;51.078;12.108;2023-07-24T06:27:59;7.95;;;3.28;;
35699;SDS011;21818;51.078;12.108;2023-07-24T06:30:25;7.03;;;3.60;;
35699;SDS011;21818;51.078;12.108;2023-07-24T06:32:50;6.07;;;3.53;;
35699;SDS011;21818;51.078;12.108;2023-07-24T06:35:16;6.72;;;3.50;;
35699;SDS011;21818;51.078;12.108;2023-07-24T06:37:41;6.63;;;3.63;;
35699;SDS011;21818;51.078;12.108;2023-07-24T06:40:07;7.13;;;3.70;;
35699;SDS011;21818;51.078;12.108;2023-07-24T06:42:33;7.85;;;3.90;;
35699;SDS011;21818;51.078;12.108;2023-07-24T06:44:59;5.50;;;3.35;;
35699;SDS011;21818;51.078;12.108;2023-07-24T06:47:25;8.40;;;3.95;;
35699;SDS011;21818;51.078;12.108;2023-07-24T06:49:51;6.30;;;4.00;;
35699;SDS011;21818;51.078;12.108;2023-07-24T06:52:16;5.22;;;3.25;;
35699;SDS011;21818;51.078;12.108;2023-07-24T06:54:42;7.35;;;3.67;;
35699;SDS011;21818;51.078;12.108;2023-07-24T06:57:07;10.70;;;3.60;;
35699;SDS011;21818;51.078;12.108;2023-07-24T06:59:33;6.40;;;3.60;;
35699;SDS011;21818;51.078;12.108;2023-07-24T07:01:58;7.35;;;3.60;;
35699;SDS011;21818;51.078;12.108;2023-07-24T07:04:24;5.53;;;3.47;;
35699;SDS011;21818;51.078;12.108;2023-07-24T07:06:50;9.38;;;3.65;;
35699;SDS011;21818;51.078;12.108;2023-07-24T07:09:15;5.85;;;3.58;;
35699;SDS011;21818;51.078;12.108;2023-07-24T07:11:41;6.90;;;3.83;;
35699;SDS011;21818;51.078;12.108;2023-07-24T07:14:08;7.10;;;3.88;;
35699;SDS011;21818;51.078;12.108;2023-07-24T07:16:34;11.23;;;3.63;;
35699;SDS011;21818;51.078;12.108;2023-07-24T07:19:00;5.25;;;3.47;;
35699;SDS011;21818;51.078;12.108;2023-07-24T07:21:25;6.80;;;3.95;;
35699;SDS011;21818;51.078;12.108;2023-07-24T07:23:51;6.85;;;3.60;;
35699;SDS011;21818;51.078;12.108;2023-07-24T07:26:16;6.03;;;3.80;;
35699;SDS011;21818;51.078;12.108;2023-07-24T07:28:42;9.70;;;3.55;;
35699;SDS011;21818;51.078;12.108;2023-07-24T07:31:09;5.90;;;3.83;;
35699;SDS011;21818;51.078;12.108;2023-07-24T07:33:35;7.35;;;3.55;;
35699;SDS011;21818;51.078;12.108;2023-07-24T07:36:01;6.95;;;3.58;;
35699;SDS011;21818;51.078;12.108;2023-07-24T07:38:28;8.48;;;3.60;;
35699;SDS011;21818;51.078;12.108;2023-07-24T07:40:54;6.35;;;3.58;;
35699;SDS011;21818;51.078;12.108;2023-07-24T07:43:20;8.98;;;3.95;;
35699;SDS011;21818;51.078;12.108;2023-07-24T07:45:46;7.20;;;3.58;;
35699;SDS011;21818;51.078;12.108;2023-07-24T07:48:12;8.85;;;4.10;;
35699;SDS011;21818;51.078;12.108;2023-07-24T07:50:38;6.88;;;4.00;;
35699;SDS011;21818;51.078;12.108;2023-07-24T07:53:03;4.80;;;3.35;;
35699;SDS011;21818;51.078;12.108;2023-07-24T07:55:29;7.15;;;3.50;;
35699;SDS011;21818;51.078;12.108;2023-07-24T07:57:55;5.97;;;3.63;;
35699;SDS011;21818;51.078;12.108;2023-07-24T08:00:20;6.85;;;4.07;;
35699;SDS011;21818;51.078;12.108;2023-07-24T08:02:47;8.05;;;3.50;;
35699;SDS011;21818;51.078;12.108;2023-07-24T08:05:12;7.13;;;3.70;;
35699;SDS011;21818;51.078;12.108;2023-07-24T08:07:38;7.53;;;3.70;;
35699;SDS011;21818;51.078;12.108;2023-07-24T08:10:03;8.27;;;3.58;;
35699;SDS011;21818;51.078;12.108;2023-07-24T08:12:29;7.55;;;3.97;;
35699;SDS011;21818;51.078;12.108;2023-07-24T08:17:20;6.25;;;3.00;;
35699;SDS011;21818;51.078;12.108;2023-07-24T08:19:46;6.70;;;3.63;;
35699;SDS011;21818;51.078;12.108;2023-07-24T08:22:12;8.88;;;3.58;;
35699;SDS011;21818;51.078;12.108;2023-07-24T08:24:37;5.50;;;3.30;;
35699;SDS011;21818;51.078;12.108;2023-07-24T08:27:03;6.15;;;3.53;;
35699;SDS011;21818;51.078;12.108;2023-07-24T08:29:29;7.22;;;3.45;;
35699;SDS011;21818;51.078;12.108;2023-07-24T08:31:54;6.95;;;3.60;;
35699;SDS011;21818;51.078;12.108;2023-07-24T08:34:20;5.18;;;3.35;;
35699;SDS011;21818;51.078;12.108;2023-07-24T08:36:45;5.90;;;3.67;;
35699;SDS011;21818;51.078;12.108;2023-07-24T08:39:11;5.45;;;3.28;;
35699;SDS011;21818;51.078;12.108;2023-07-24T08:41:37;6.10;;;3.65;;
35699;SDS011;21818;51.078;12.108;2023-07-24T08:44:07;7.88;;;3.88;;
35699;SDS011;21818;51.078;12.108;2023-07-24T08:46:37;8.77;;;3.75;;
35699;SDS011;21818;51.078;12.108;2023-07-24T08:49:03;7.35;;;3.30;;
35699;SDS011;21818;51.078;12.108;2023-07-24T08:51:29;4.90;;;3.10;;
35699;SDS011;21818;51.078;12.108;2023-07-24T08:53:56;4.88;;;3.38;;
35699;SDS011;21818;51.078;12.108;2023-07-24T08:56:22;5.28;;;3.53;;
35699;SDS011;21818;51.078;12.108;2023-07-24T08:58:48;7.50;;;3.88;;
35699;SDS011;21818;51.078;12.108;2023-07-24T09:01:13;5.95;;;3.65;;
35699;SDS011;21818;51.078;12.108;2023-07-24T09:03:39;7.03;;;3.35;;
35699;SDS011;21818;51.078;12.108;2023-07-24T09:06:05;6.97;;;3.50;;
35699;SDS011;21818;51.078;12.108;2023-07-24T09:08:35;6.03;;;3.05;;
35699;SDS011;21818;51.078;12.108;2023-07-24T09:11:01;6.38;;;3.50;;
35699;SDS011;21818;51.078;12.108;2023-07-24T09:13:28;6.38;;;3.53;;
35699;SDS011;21818;51.078;12.108;2023-07-24T09:15:54;5.20;;;3.38;;
35699;SDS011;21818;51.078;12.108;2023-07-24T09:18:20;5.63;;;3.08;;
35699;SDS011;21818;51.078;12.108;2023-07-24T09:20:46;5.50;;;3.55;;
35699;SDS011;21818;51.078;12.108;2023-07-24T09:23:12;6.75;;;3.45;;
35699;SDS011;21818;51.078;12.108;2023-07-24T09:25:40;7.40;;;3.55;;
35699;SDS011;21818;51.078;12.108;2023-07-24T09:30:36;4.93;;;2.90;;
35699;SDS011;21818;51.078;12.108;2023-07-24T09:33:03;6.93;;;3.67;;
35699;SDS011;21818;51.078;12.108;2023-07-24T09:35:28;6.18;;;3.83;;
35699;SDS011;21818;51.078;12.108;2023-07-24T09:40:42;6.13;;;3.55;;
35699;SDS011;21818;51.078;12.108;2023-07-24T09:45:46;6.63;;;3.78;;
35699;SDS011;21818;51.078;12.108;2023-07-24T09:48:13;5.07;;;3.58;;
35699;SDS011;21818;51.078;12.108;2023-07-24T09:50:40;5.63;;;3.63;;
35699;SDS011;21818;51.078;12.108;2023-07-24T09:53:20;5.85;;;3.33;;
35699;SDS011;21818;51.078;12.108;2023-07-24T09:55:51;6.05;;;3.63;;
35699;SDS011;21818;51.078;12.108;2023-07-24T09:58:20;6.05;;;3.17;;
35699;SDS011;21818;51.078;12.108;2023-07-24T10:00:47;6.10;;;3.08;;
35699;SDS011;21818;51.078;12.108;2023-07-24T10:03:14;6.35;;;3.63;;
35699;SDS011;21818;51.078;12.108;2023-07-24T10:05:41;5.43;;;3.63;;
35699;SDS011;21818;51.078;12.108;2023-07-24T10:08:10;12.30;;;5.00;;
35699;SDS011;21818;51.078;12.108;2023-07-24T10:10:37;6.68;;;3.65;;
35699;SDS011;21818;51.078;12.108;2023-07-24T10:13:04;5.78;;;3.42;;
35699;SDS011;21818;51.078;12.108;2023-07-24T10:15:30;5.45;;;3.47;;
35699;SDS011;21818;51.078;12.108;2023-07-24T10:18:03;5.55;;;3.33;;
35699;SDS011;21818;51.078;12.108;2023-07-24T10:20:34;5.57;;;3.28;;
35699;SDS011;21818;51.078;12.108;2023-07-24T10:23:01;5.97;;;3.20;;
35699;SDS011;21818;51.078;12.108;2023-07-24T10:25:31;5.20;;;3.33;;
35699;SDS011;21818;51.078;12.108;2023-07-24T10:28:02;8.13;;;3.45;;
35699;SDS011;21818;51.078;12.108;2023-07-24T10:30:30;5.22;;;3.25;;
35699;SDS011;21818;51.078;12.108;2023-07-24T10:33:12;5.55;;;3.58;;
35699;SDS011;21818;51.078;12.108;2023-07-24T10:35:54;5.72;;;3.35;;
35699;SDS011;21818;51.078;12.108;2023-07-24T10:38:35;5.97;;;3.53;;
35699;SDS011;21818;51.078;12.108;2023-07-24T10:41:08;5.13;;;3.03;;
35699;SDS011;21818;51.078;12.108;2023-07-24T10:43:48;7.15;;;4.07;;
35699;SDS011;21818;51.078;12.108;2023-07-24T10:46:16;5.55;;;3.35;;
35699;SDS011;21818;51.078;12.108;2023-07-24T10:48:44;5.47;;;3.72;;
35699;SDS011;21818;51.078;12.108;2023-07-24T10:51:11;5.13;;;3.13;;
35699;SDS011;21818;51.078;12.108;2023-07-24T10:53:41;5.10;;;3.53;;
35699;SDS011;21818;51.078;12.108;2023-07-24T10:56:16;4.93;;;3.33;;
35699;SDS011;21818;51.078;12.108;2023-07-24T10:58:42;5.65;;;3.35;;
35699;SDS011;21818;51.078;12.108;2023-07-24T11:01:08;5.55;;;3.17;;
35699;SDS011;21818;51.078;12.108;2023-07-24T11:03:36;5.30;;;3.45;;
35699;SDS011;21818;51.078;12.108;2023-07-24T11:06:04;5.97;;;3.45;;
35699;SDS011;21818;51.078;12.108;2023-07-24T11:08:36;5.05;;;3.30;;
35699;SDS011;21818;51.078;12.108;2023-07-24T11:11:05;6.63;;;3.97;;
35699;SDS011;21818;51.078;12.108;2023-07-24T11:13:31;5.65;;;3.63;;
35699;SDS011;21818;51.078;12.108;2023-07-24T11:16:03;5.38;;;2.90;;
35699;SDS011;21818;51.078;12.108;2023-07-24T11:18:32;5.40;;;3.10;;
35699;SDS011;21818;51.078;12.108;2023-07-24T11:21:08;6.05;;;3.60;;
35699;SDS011;21818;51.078;12.108;2023-07-24T11:23:34;6.45;;;3.45;;
35699;SDS011;21818;51.078;12.108;2023-07-24T11:26:01;5.60;;;3.25;;
35699;SDS011;21818;51.078;12.108;2023-07-24T11:28:30;6.07;;;3.58;;
35699;SDS011;21818;51.078;12.108;2023-07-24T11:31:04;6.22;;;3.67;;
35699;SDS011;21818;51.078;12.108;2023-07-24T11:33:30;6.05;;;3.40;;
35699;SDS011;21818;51.078;12.108;2023-07-24T11:35:55;6.80;;;3.90;;
35699;SDS011;21818;51.078;12.108;2023-07-24T11:38:21;6.32;;;3.38;;
35699;SDS011;21818;51.078;12.108;2023-07-24T11:40:47;7.18;;;4.10;;
35699;SDS011;21818;51.078;12.108;2023-07-24T11:43:16;6.07;;;3.88;;
35699;SDS011;21818;51.078;12.108;2023-07-24T11:48:10;5.40;;;3.63;;
35699;SDS011;21818;51.078;12.108;2023-07-24T11:50:49;5.78;;;3.42;;
35699;SDS011;21818;51.078;12.108;2023-07-24T11:55:57;6.72;;;4.00;;
35699;SDS011;21818;51.078;12.108;2023-07-24T11:58:28;5.57;;;3.00;;
35699;SDS011;21818;51.078;12.108;2023-07-24T12:00:55;5.65;;;3.50;;
35699;SDS011;21818;51.078;12.108;2023-07-24T12:03:21;5.75;;;3.72;;
35699;SDS011;21818;51.078;12.108;2023-07-24T12:05:49;6.35;;;3.47;;
35699;SDS011;21818;51.078;12.108;2023-07-24T12:08:16;5.20;;;3.10;;
35699;SDS011;21818;51.078;12.108;2023-07-24T12:10:43;6.25;;;3.78;;
35699;SDS011;21818;51.078;12.108;2023-07-24T12:13:09;6.90;;;2.97;;
35699;SDS011;21818;51.078;12.108;2023-07-24T12:15:35;4.80;;;3.25;;
35699;SDS011;21818;51.078;12.108;2023-07-24T12:18:02;6.25;;;3.55;;
35699;SDS011;21818;51.078;12.108;2023-07-24T12:20:28;5.50;;;3.53;;
35699;SDS011;21818;51.078;12.108;2023-07-24T12:22:54;4.68;;;3.08;;
35699;SDS011;21818;51.078;12.108;2023-07-24T12:25:20;5.68;;;3.40;;
35699;SDS011;21818;51.078;12.108;2023-07-24T12:27:46;7.22;;;3.97;;
35699;SDS011;21818;51.078;12.108;2023-07-24T12:30:12;5.93;;;3.67;;
35699;SDS011;21818;51.078;12.108;2023-07-24T12:32:38;7.07;;;3.47;;
35699;SDS011;21818;51.078;12.108;2023-07-24T12:35:03;9.27;;;4.18;;
35699;SDS011;21818;51.078;12.108;2023-07-24T12:37:30;5.35;;;3.35;;
35699;SDS011;21818;51.078;12.108;2023-07-24T12:39:55;7.25;;;3.67;;
35699;SDS011;21818;51.078;12.108;2023-07-24T12:42:21;5.55;;;3.20;;
35699;SDS011;21818;51.078;12.108;2023-07-24T12:44:47;5.30;;;3.67;;
35699;SDS011;21818;51.078;12.108;2023-07-24T12:47:12;5.60;;;3.50;;
35699;SDS011;21818;51.078;12.108;2023-07-24T12:49:38;6.05;;;3.58;;
35699;SDS011;21818;51.078;12.108;2023-07-24T12:52:04;6.95;;;3.58;;
35699;SDS011;21818;51.078;12.108;2023-07-24T12:54:30;6.45;;;3.50;;
35699;SDS011;21818;51.078;12.108;2023-07-24T12:56:56;5.75;;;3.53;;
35699;SDS011;21818;51.078;12.108;2023-07-24T12:59:22;6.88;;;3.90;;
35699;SDS011;21818;51.078;12.108;2023-07-24T13:01:48;5.68;;;3.58;;
35699;SDS011;21818;51.078;12.108;2023-07-24T13:04:13;5.18;;;3.35;;
35699;SDS011;21818;51.078;12.108;2023-07-24T13:06:39;6.45;;;3.85;;
35699;SDS011;21818;51.078;12.108;2023-07-24T13:09:05;6.70;;;3.83;;
35699;SDS011;21818;51.078;12.108;2023-07-24T13:11:30;6.95;;;3.92;;
35699;SDS011;21818;51.078;12.108;2023-07-24T13:13:56;7.60;;;3.75;;
35699;SDS011;21818;51.078;12.108;2023-07-24T13:16:22;5.40;;;3.13;;
35699;SDS011;21818;51.078;12.108;2023-07-24T13:18:48;5.25;;;3.63;;
35699;SDS011;21818;51.078;12.108;2023-07-24T13:21:14;5.82;;;3.35;;
35699;SDS011;21818;51.078;12.108;2023-07-24T13:23:40;6.53;;;3.95;;
35699;SDS011;21818;51.078;12.108;2023-07-24T13:26:05;5.55;;;3.70;;
35699;SDS011;21818;51.078;12.108;2023-07-24T13:28:33;5.78;;;3.67;;
35699;SDS011;21818;51.078;12.108;2023-07-24T13:30:59;7.60;;;3.90;;
35699;SDS011;21818;51.078;12.108;2023-07-24T13:33:24;6.30;;;3.60;;
35699;SDS011;21818;51.078;12.108;2023-07-24T13:35:50;5.72;;;3.70;;
35699;SDS011;21818;51.078;12.108;2023-07-24T13:38:16;6.68;;;3.47;;
35699;SDS011;21818;51.078;12.108;2023-07-24T13:40:42;7.38;;;4.00;;
35699;SDS011;21818;51.078;12.108;2023-07-24T13:43:07;6.05;;;4.13;;
35699;SDS011;21818;51.078;12.108;2023-07-24T13:45:33;6.72;;;3.75;;
35699;SDS011;21818;51.078;12.108;2023-07-24T13:47:59;5.38;;;3.80;;
35699;SDS011;21818;51.078;12.108;2023-07-24T13:50:24;6.03;;;4.00;;
35699;SDS011;21818;51.078;12.108;2023-07-24T13:52:50;5.88;;;3.80;;
35699;SDS011;21818;51.078;12.108;2023-07-24T13:55:15;6.03;;;3.88;;
35699;SDS011;21818;51.078;12.108;2023-07-24T13:57:41;5.88;;;3.70;;
35699;SDS011;21818;51.078;12.108;2023-07-24T14:00:07;5.75;;;3.65;;
35699;SDS011;21818;51.078;12.108;2023-07-24T14:02:33;7.45;;;4.18;;
35699;SDS011;21818;51.078;12.108;2023-07-24T14:04:58;5.65;;;3.50;;
35699;SDS011;21818;51.078;12.108;2023-07-24T14:07:24;6.93;;;4.00;;
35699;SDS011;21818;51.078;12.108;2023-07-24T14:09:50;6.63;;;3.92;;
35699;SDS011;21818;51.078;12.108;2023-07-24T14:12:15;4.55;;;3.30;;
35699;SDS011;21818;51.078;12.108;2023-07-24T14:14:41;5.78;;;3.75;;
35699;SDS011;21818;51.078;12.108;2023-07-24T14:17:07;6.30;;;3.75;;
35699;SDS011;21818;51.078;12.108;2023-07-24T14:19:32;6.65;;;3.78;;
35699;SDS011;21818;51.078;12.108;2023-07-24T14:21:58;6.15;;;3.70;;
35699;SDS011;21818;51.078;12.108;2023-07-24T14:24:23;6.78;;;4.03;;
35699;SDS011;21818;51.078;12.108;2023-07-24T14:26:49;5.60;;;3.53;;
35699;SDS011;21818;51.078;12.108;2023-07-24T14:29:14;6.35;;;3.70;;
35699;SDS011;21818;51.078;12.108;2023-07-24T14:31:42;6.78;;;3.67;;
35699;SDS011;21818;51.078;12.108;2023-07-24T14:34:08;6.25;;;3.65;;
35699;SDS011;21818;51.078;12.108;2023-07-24T14:36:36;5.38;;;3.88;;
35699;SDS011;21818;51.078;12.108;2023-07-24T14:39:02;5.55;;;3.47;;
35699;SDS011;21818;51.078;12.108;2023-07-24T14:41:28;5.85;;;3.72;;
35699;SDS011;21818;51.078;12.108;2023-07-24T14:43:54;6.22;;;3.60;;
35699;SDS011;21818;51.078;12.108;2023-07-24T14:46:20;5.63;;;3.60;;
35699;SDS011;21818;51.078;12.108;2023-07-24T14:48:45;5.00;;;3.60;;